You are not logged in, Click here to log in
法蘭克福機場FRA / EDDF 德國黑森邦法蘭克福
ICAO: EDDF Country: 德國黑森邦法蘭克福
Latitude: 50.0264 Longitude: 8.54313
Total Arrivals: 35 Total Departures: 37
Latest Arrival: CI1924 (EGCC-EDDF)ALAN. LIU Latest Departure: CI1925 (EDDF-EPKK)ALAN. LIU
Scenery:
METAR : EDDF 240750Z 18005KT 140V210 9000 FEW006 OVC011 00/M02 Q1025 R25R/19//95 R25C/19//95 R25L/19//95 R18/19//95 NOSIG

法蘭克福機場FRA

You are accessing this site from IP address 18.206.12.79. Virtual Airline. CMS by phpVMS.Website designed by Zumeweb and edited by Theo Bearman.
There is 0 User(s) Online: | and 13 Guest(s) Online.
All information on this site is for fight simulation purposes only. This site is for flight logging for pilots of Virtual Airline&模擬飛行論壇 FlySim only.